Terminal Aerodrome Forecast
Issued by NWS

Home | Current Version | Previous Version | Text Only | Print | Product List | Glossary On
Versions: 1 2 3 4 5 6 7 8 9 10 11 12 13 14 15 16 17 18
604
FTUS43 KILX 281120
TAFBMI
TAF
KBMI 281120Z 2812/2912 18010G20KT P6SM BKN200
     FM290500 21012G21KT P6SM -SHRA VCTS SCT040CB BKN090
      WS020/23040KT
     FM290900 21010KT P6SM SHRA VCTS SCT040CB BKN090=

USA.gov is the U.S. government's official web portal to all federal, state and local government web resources and services.